Time;durP1;ratioP1;P1;durP2;ratioP2;P2;SDS_P1;SDS_P2;PMS_P1;PMS_P2;Temp;Humidity;BMP_temperature;BMP_pressure;BME280_temperature;BME280_humidity;BME280_pressure;Samples;Min_cycle;Max_cycle;Signal;HPM_P1;HPM_P2
2023/07/05 00:00:20;;;;;;;4.82;3.30;;;;;;;;;;5068383;28;20024;-81
2023/07/05 00:03:06;;;;;;;5.65;3.83;;;;;;;;;;5069113;28;20029;-81
2023/07/05 00:05:51;;;;;;;6.32;3.53;;;;;;;;;;5080635;28;20832;-82
2023/07/05 00:08:36;;;;;;;5.60;3.47;;;;;;;;;;5066853;28;20039;-81
2023/07/05 00:11:21;;;;;;;5.85;3.28;;;;;;;;;;5067691;28;20383;-82
2023/07/05 00:14:07;;;;;;;5.07;3.20;;;;;;;;;;5055573;28;20033;-69
2023/07/05 00:16:52;;;;;;;6.55;3.20;;;;;;;;;;5069160;28;20042;-69
2023/07/05 00:19:37;;;;;;;11.25;3.65;;;;;;;;;;5068337;28;20028;-69
2023/07/05 00:22:22;;;;;;;5.53;2.97;;;;;;;;;;5065502;28;20392;-68
2023/07/05 00:25:08;;;;;;;5.35;3.20;;;;;;;;;;5071668;28;20059;-69
2023/07/05 00:27:53;;;;;;;6.65;3.20;;;;;;;;;;5064421;28;20516;-72
2023/07/05 00:30:41;;;;;;;4.35;2.72;;;;;;;;;;5069773;28;20026;-69
2023/07/05 00:33:26;;;;;;;6.82;3.58;;;;;;;;;;5067547;28;20024;-72
2023/07/05 00:36:11;;;;;;;5.53;3.05;;;;;;;;;;5043641;28;20035;-73
2023/07/05 00:38:57;;;;;;;7.15;3.10;;;;;;;;;;5064527;28;20510;-71
2023/07/05 00:41:42;;;;;;;5.38;2.97;;;;;;;;;;5069225;28;20028;-71
2023/07/05 00:44:27;;;;;;;6.93;3.65;;;;;;;;;;5061507;28;20043;-71
2023/07/05 00:47:15;;;;;;;5.78;3.22;;;;;;;;;;5066077;28;20032;-71
2023/07/05 00:50:03;;;;;;;7.13;3.10;;;;;;;;;;5067734;28;20086;-67
2023/07/05 00:52:49;;;;;;;4.97;3.33;;;;;;;;;;5065473;28;20036;-68
2023/07/05 00:55:34;;;;;;;5.75;2.92;;;;;;;;;;5063992;28;20032;-69
2023/07/05 00:58:21;;;;;;;5.10;2.55;;;;;;;;;;5048473;28;20062;-71
2023/07/05 01:01:06;;;;;;;4.82;2.60;;;;;;;;;;5041855;28;20293;-68
2023/07/05 01:03:52;;;;;;;5.07;2.53;;;;;;;;;;5067337;28;20056;-72
2023/07/05 01:06:39;;;;;;;6.47;3.35;;;;;;;;;;5066461;28;20097;-83
2023/07/05 01:09:26;;;;;;;6.18;3.15;;;;;;;;;;5066544;28;20050;-70
2023/07/05 01:12:23;;;;;;;4.13;2.40;;;;;;;;;;5073719;28;20031;-69
2023/07/05 01:15:14;;;;;;;4.15;2.47;;;;;;;;;;5067609;28;20035;-69
2023/07/05 01:18:01;;;;;;;5.57;2.58;;;;;;;;;;5068874;28;20539;-69
2023/07/05 01:20:49;;;;;;;4.00;2.08;;;;;;;;;;5067384;28;20078;-68
2023/07/05 01:23:38;;;;;;;3.90;1.97;;;;;;;;;;5072340;28;20119;-72
2023/07/05 01:26:24;;;;;;;6.85;2.75;;;;;;;;;;5057816;28;20035;-72
2023/07/05 01:29:27;;;;;;;4.88;2.50;;;;;;;;;;5057439;28;20382;-68
2023/07/05 01:32:22;;;;;;;5.40;2.30;;;;;;;;;;5057129;28;20020;-70
2023/07/05 01:35:16;;;;;;;4.65;2.47;;;;;;;;;;5070916;28;20089;-69
2023/07/05 01:38:04;;;;;;;3.80;2.10;;;;;;;;;;5071039;28;20111;-69
2023/07/05 01:40:49;;;;;;;3.08;2.13;;;;;;;;;;5057417;28;20024;-70
2023/07/05 01:43:36;;;;;;;3.10;2.13;;;;;;;;;;5056732;28;20153;-70
2023/07/05 01:46:23;;;;;;;3.88;2.17;;;;;;;;;;5070900;28;20202;-70
2023/07/05 01:49:11;;;;;;;5.00;2.17;;;;;;;;;;5065954;28;20526;-69
2023/07/05 01:51:59;;;;;;;5.18;2.58;;;;;;;;;;5056778;28;20024;-69
2023/07/05 01:55:17;;;;;;;4.60;2.10;;;;;;;;;;5048492;28;20035;-70
2023/07/05 01:58:07;;;;;;;3.90;2.10;;;;;;;;;;5024346;28;20033;-69
2023/07/05 02:00:52;;;;;;;3.58;2.55;;;;;;;;;;5070790;28;20052;-81
2023/07/05 02:03:38;;;;;;;4.60;2.42;;;;;;;;;;5070250;28;20024;-71
2023/07/05 02:06:23;;;;;;;4.78;2.45;;;;;;;;;;5070443;28;20048;-71
2023/07/05 02:09:09;;;;;;;2.60;2.00;;;;;;;;;;5063081;28;20219;-70
2023/07/05 02:11:54;;;;;;;5.20;2.30;;;;;;;;;;5070579;28;20086;-71
2023/07/05 02:14:39;;;;;;;4.28;2.25;;;;;;;;;;5058519;28;20028;-73
2023/07/05 02:17:24;;;;;;;6.28;2.72;;;;;;;;;;5071157;28;20066;-72
2023/07/05 02:20:10;;;;;;;3.17;2.35;;;;;;;;;;5070867;28;20025;-81
2023/07/05 02:22:55;;;;;;;5.10;2.30;;;;;;;;;;5054324;28;20025;-82
2023/07/05 02:25:40;;;;;;;2.50;1.80;;;;;;;;;;5064023;28;20016;-81
2023/07/05 02:28:26;;;;;;;2.90;1.98;;;;;;;;;;5063629;28;20074;-81
2023/07/05 02:31:11;;;;;;;3.60;2.10;;;;;;;;;;5065545;28;20024;-81
2023/07/05 02:33:57;;;;;;;3.00;2.08;;;;;;;;;;5063678;28;20013;-81
2023/07/05 02:36:42;;;;;;;4.18;2.20;;;;;;;;;;5058347;28;20039;-75
2023/07/05 02:39:27;;;;;;;4.90;2.00;;;;;;;;;;5044155;28;20024;-71
2023/07/05 02:42:13;;;;;;;4.45;1.90;;;;;;;;;;5053376;28;20330;-74
2023/07/05 02:44:58;;;;;;;2.92;1.40;;;;;;;;;;5053939;28;20052;-74
2023/07/05 02:47:43;;;;;;;2.90;1.65;;;;;;;;;;5040828;28;20032;-74
2023/07/05 02:50:29;;;;;;;2.30;1.70;;;;;;;;;;5053612;28;20032;-73
2023/07/05 02:53:14;;;;;;;2.95;1.75;;;;;;;;;;5053831;28;20032;-73
2023/07/05 02:55:59;;;;;;;2.22;1.63;;;;;;;;;;5067876;28;20020;-73
2023/07/05 02:58:44;;;;;;;2.83;1.35;;;;;;;;;;5053493;28;20124;-71
2023/07/05 03:01:30;;;;;;;3.72;1.85;;;;;;;;;;5033505;28;20699;-70
2023/07/05 03:04:15;;;;;;;6.28;2.00;;;;;;;;;;5050991;28;20610;-70
2023/07/05 03:07:00;;;;;;;3.38;1.80;;;;;;;;;;5054121;28;20090;-70
2023/07/05 03:09:48;;;;;;;2.70;1.85;;;;;;;;;;5055611;28;20520;-70
2023/07/05 03:12:33;;;;;;;3.25;1.95;;;;;;;;;;5069105;28;20025;-69
2023/07/05 03:15:18;;;;;;;3.05;1.58;;;;;;;;;;5054885;28;20028;-70
2023/07/05 03:18:04;;;;;;;3.20;1.80;;;;;;;;;;5070619;28;20115;-76
2023/07/05 03:20:49;;;;;;;3.00;1.80;;;;;;;;;;5069554;28;20194;-76
2023/07/05 03:23:34;;;;;;;3.80;1.77;;;;;;;;;;5073735;28;20024;-75
2023/07/05 03:26:19;;;;;;;3.67;1.58;;;;;;;;;;5054930;28;20056;-76
2023/07/05 03:29:05;;;;;;;4.07;1.58;;;;;;;;;;5063848;28;20682;-75
2023/07/05 03:31:50;;;;;;;3.60;1.90;;;;;;;;;;5068309;28;20035;-76
2023/07/05 03:34:36;;;;;;;2.00;1.33;;;;;;;;;;5068974;28;20020;-70
2023/07/05 03:37:21;;;;;;;2.95;1.58;;;;;;;;;;5068688;28;20637;-73
2023/07/05 03:40:07;;;;;;;3.55;1.60;;;;;;;;;;5072317;28;20021;-73
2023/07/05 03:42:52;;;;;;;2.92;1.73;;;;;;;;;;5062436;28;20039;-72
2023/07/05 03:45:37;;;;;;;2.30;1.42;;;;;;;;;;5067913;28;20020;-73
2023/07/05 03:48:23;;;;;;;2.03;1.50;;;;;;;;;;5068497;28;20157;-72
2023/07/05 03:51:09;;;;;;;2.78;1.70;;;;;;;;;;5056135;28;20028;-72
2023/07/05 03:53:56;;;;;;;3.83;1.88;;;;;;;;;;5054342;28;20490;-81
2023/07/05 03:56:41;;;;;;;2.50;1.60;;;;;;;;;;5054628;28;20502;-79
2023/07/05 03:59:27;;;;;;;3.88;2.03;;;;;;;;;;5067503;28;20066;-80
2023/07/05 04:02:12;;;;;;;3.00;1.70;;;;;;;;;;5053988;28;20086;-82
2023/07/05 04:04:57;;;;;;;3.20;1.80;;;;;;;;;;5068342;28;20043;-80
2023/07/05 04:07:42;;;;;;;3.08;2.08;;;;;;;;;;5054052;28;20074;-80
2023/07/05 04:10:28;;;;;;;2.97;1.50;;;;;;;;;;5068080;28;20483;-80
2023/07/05 04:13:13;;;;;;;2.63;1.90;;;;;;;;;;5055286;28;20223;-75
2023/07/05 04:16:03;;;;;;;2.78;1.63;;;;;;;;;;5053333;28;20052;-76
2023/07/05 04:18:52;;;;;;;4.10;1.77;;;;;;;;;;5040646;28;20129;-77
2023/07/05 04:21:39;;;;;;;3.42;2.10;;;;;;;;;;5054017;28;20071;-75
2023/07/05 04:24:24;;;;;;;3.08;1.60;;;;;;;;;;5078493;28;20048;-75
2023/07/05 04:27:10;;;;;;;2.38;1.80;;;;;;;;;;5067690;28;20020;-81
2023/07/05 04:29:55;;;;;;;5.13;1.75;;;;;;;;;;5039848;28;20037;-69
2023/07/05 04:32:40;;;;;;;4.07;1.95;;;;;;;;;;5067914;28;20020;-72
2023/07/05 04:35:25;;;;;;;3.97;2.08;;;;;;;;;;5065459;28;20032;-73
2023/07/05 04:38:11;;;;;;;5.22;2.08;;;;;;;;;;5067737;28;20036;-72
2023/07/05 04:40:57;;;;;;;9.38;1.88;;;;;;;;;;5060617;28;20024;-71
2023/07/05 04:43:42;;;;;;;3.03;1.75;;;;;;;;;;5061112;28;20028;-72
2023/07/05 04:46:27;;;;;;;8.00;1.90;;;;;;;;;;5058327;28;20123;-70
2023/07/05 04:49:13;;;;;;;2.53;1.58;;;;;;;;;;5067393;28;20111;-73
2023/07/05 04:51:58;;;;;;;2.00;1.40;;;;;;;;;;5067481;28;20534;-74
2023/07/05 04:54:43;;;;;;;5.03;1.90;;;;;;;;;;5071842;28;20067;-74
2023/07/05 04:57:28;;;;;;;2.17;1.40;;;;;;;;;;5069513;28;20059;-72
2023/07/05 05:00:14;;;;;;;3.72;2.15;;;;;;;;;;5067492;28;20029;-73
2023/07/05 05:02:59;;;;;;;3.55;1.88;;;;;;;;;;5054520;28;20108;-72
2023/07/05 05:05:45;;;;;;;4.63;2.30;;;;;;;;;;5063628;28;20052;-72
2023/07/05 05:08:30;;;;;;;3.20;1.60;;;;;;;;;;5077998;28;20081;-72
2023/07/05 05:11:15;;;;;;;2.88;1.80;;;;;;;;;;5066329;28;20016;-72
2023/07/05 05:14:01;;;;;;;4.35;1.92;;;;;;;;;;5067242;28;20032;-71
2023/07/05 05:16:46;;;;;;;4.60;1.85;;;;;;;;;;5056474;28;20017;-72
2023/07/05 05:19:31;;;;;;;3.30;1.73;;;;;;;;;;5079191;28;20024;-74
2023/07/05 05:22:16;;;;;;;5.18;2.00;;;;;;;;;;5079429;28;20123;-75
2023/07/05 05:25:02;;;;;;;2.80;1.48;;;;;;;;;;5052621;28;20046;-73
2023/07/05 05:27:48;;;;;;;3.42;2.10;;;;;;;;;;5067363;28;20047;-80
2023/07/05 05:30:34;;;;;;;3.47;1.55;;;;;;;;;;5052543;28;20483;-82
2023/07/05 05:33:20;;;;;;;4.60;1.98;;;;;;;;;;5066761;28;20524;-79
2023/07/05 05:36:05;;;;;;;3.92;1.83;;;;;;;;;;5067653;28;20086;-81
2023/07/05 05:38:50;;;;;;;2.42;1.65;;;;;;;;;;5052953;28;20040;-80
2023/07/05 05:41:36;;;;;;;3.83;2.35;;;;;;;;;;5067459;28;20059;-70
2023/07/05 05:44:21;;;;;;;3.72;1.50;;;;;;;;;;5066316;28;20106;-71
2023/07/05 05:47:06;;;;;;;7.25;2.22;;;;;;;;;;5066525;28;20032;-70
2023/07/05 05:49:51;;;;;;;5.50;1.60;;;;;;;;;;5065543;28;20391;-73
2023/07/05 05:52:36;;;;;;;3.42;1.52;;;;;;;;;;5051584;28;20071;-70
2023/07/05 05:55:22;;;;;;;2.97;1.70;;;;;;;;;;5061669;28;20036;-70
2023/07/05 05:58:07;;;;;;;4.28;1.73;;;;;;;;;;5067400;28;20529;-70
2023/07/05 06:00:53;;;;;;;2.97;1.60;;;;;;;;;;5051823;28;20051;-68
2023/07/05 06:03:38;;;;;;;4.55;2.10;;;;;;;;;;5066009;28;20222;-69
2023/07/05 06:06:24;;;;;;;2.13;1.50;;;;;;;;;;5072873;28;20066;-70
2023/07/05 06:09:10;;;;;;;1.92;1.67;;;;;;;;;;5071734;28;20602;-71
2023/07/05 06:11:55;;;;;;;5.03;2.55;;;;;;;;;;5059429;28;20027;-69
2023/07/05 06:14:40;;;;;;;3.88;1.70;;;;;;;;;;5055365;28;20479;-69
2023/07/05 06:17:26;;;;;;;3.25;2.08;;;;;;;;;;5071861;28;20060;-73
2023/07/05 06:20:14;;;;;;;3.13;1.80;;;;;;;;;;5068978;28;20475;-72
2023/07/05 06:23:02;;;;;;;3.92;2.03;;;;;;;;;;5069286;28;20028;-71
2023/07/05 06:25:48;;;;;;;5.55;1.80;;;;;;;;;;5068098;28;20075;-74
2023/07/05 06:28:33;;;;;;;4.53;2.13;;;;;;;;;;5069880;28;20364;-72
2023/07/05 06:31:19;;;;;;;2.97;1.73;;;;;;;;;;5069507;28;20039;-72
2023/07/05 06:34:04;;;;;;;3.85;2.10;;;;;;;;;;5056530;28;20078;-71
2023/07/05 06:36:50;;;;;;;4.60;2.10;;;;;;;;;;5069365;28;20110;-72
2023/07/05 06:39:36;;;;;;;6.38;1.83;;;;;;;;;;5069184;28;20104;-75
2023/07/05 06:42:21;;;;;;;3.22;1.83;;;;;;;;;;5069840;28;20107;-74
2023/07/05 06:45:06;;;;;;;5.63;2.05;;;;;;;;;;5055231;28;20468;-74
2023/07/05 06:47:52;;;;;;;3.67;1.85;;;;;;;;;;5057771;28;20512;-76
2023/07/05 06:50:37;;;;;;;5.72;2.10;;;;;;;;;;5069508;28;20502;-75
2023/07/05 06:53:22;;;;;;;2.90;1.73;;;;;;;;;;5069548;28;20027;-75
2023/07/05 06:56:09;;;;;;;4.32;1.85;;;;;;;;;;5078493;28;20499;-76
2023/07/05 06:58:54;;;;;;;3.22;2.00;;;;;;;;;;5054880;28;20024;-68
2023/07/05 07:01:40;;;;;;;7.35;2.10;;;;;;;;;;5055599;28;20031;-66
2023/07/05 07:04:25;;;;;;;5.20;1.92;;;;;;;;;;5068843;28;20045;-67
2023/07/05 07:07:11;;;;;;;4.20;1.92;;;;;;;;;;5016952;28;20049;-68
2023/07/05 07:09:56;;;;;;;5.88;2.47;;;;;;;;;;5017895;28;20083;-68
2023/07/05 07:12:41;;;;;;;4.55;2.45;;;;;;;;;;5029133;28;20032;-76
2023/07/05 07:15:26;;;;;;;4.57;2.33;;;;;;;;;;5028809;28;20465;-78
2023/07/05 07:18:12;;;;;;;6.30;2.75;;;;;;;;;;5027117;28;20083;-72
2023/07/05 07:20:59;;;;;;;4.78;2.08;;;;;;;;;;5015199;28;20026;-71
2023/07/05 07:23:46;;;;;;;4.10;2.15;;;;;;;;;;5028301;28;20489;-72
2023/07/05 07:26:31;;;;;;;3.88;2.00;;;;;;;;;;5025703;28;20026;-72
2023/07/05 07:29:16;;;;;;;3.72;2.33;;;;;;;;;;5018378;28;20380;-71
2023/07/05 07:32:02;;;;;;;5.43;1.92;;;;;;;;;;4997242;28;20038;-74
2023/07/05 07:34:50;;;;;;;3.20;1.90;;;;;;;;;;5015439;28;20067;-73
2023/07/05 07:37:35;;;;;;;3.03;1.98;;;;;;;;;;5016875;28;20025;-73
2023/07/05 07:40:20;;;;;;;5.25;1.80;;;;;;;;;;5028537;28;20152;-72
2023/07/05 07:43:06;;;;;;;4.97;2.20;;;;;;;;;;5017805;28;20030;-73
2023/07/05 07:45:51;;;;;;;5.68;2.47;;;;;;;;;;5027851;28;20108;-73
2023/07/05 07:48:38;;;;;;;9.30;2.40;;;;;;;;;;5000776;28;20091;-72
2023/07/05 07:51:25;;;;;;;8.52;2.10;;;;;;;;;;5019386;28;20041;-79
2023/07/05 07:54:15;;;;;;;3.47;2.03;;;;;;;;;;5012243;28;20017;-76
2023/07/05 07:57:00;;;;;;;7.03;2.42;;;;;;;;;;5022266;28;20029;-73
2023/07/05 07:59:46;;;;;;;3.45;1.70;;;;;;;;;;5016672;28;20029;-74
2023/07/05 08:02:31;;;;;;;2.42;1.20;;;;;;;;;;5028184;28;20025;-73
2023/07/05 08:05:16;;;;;;;3.70;1.70;;;;;;;;;;5029943;28;20511;-73
2023/07/05 08:08:01;;;;;;;3.63;1.83;;;;;;;;;;5054246;28;20102;-69
2023/07/05 08:10:47;;;;;;;4.43;1.70;;;;;;;;;;5054315;28;20051;-69
2023/07/05 08:13:32;;;;;;;4.13;1.52;;;;;;;;;;5057862;28;20440;-76
2023/07/05 08:16:17;;;;;;;2.42;1.40;;;;;;;;;;5069093;28;20024;-76
2023/07/05 08:19:03;;;;;;;1.85;1.33;;;;;;;;;;5054254;28;20044;-75
2023/07/05 08:21:48;;;;;;;3.20;1.50;;;;;;;;;;5054385;28;20060;-78
2023/07/05 08:24:34;;;;;;;1.63;1.45;;;;;;;;;;5060548;28;20044;-75
2023/07/05 08:27:19;;;;;;;3.33;1.40;;;;;;;;;;5054212;28;20027;-76
2023/07/05 08:30:05;;;;;;;1.50;1.35;;;;;;;;;;5066495;28;20036;-73
2023/07/05 08:32:51;;;;;;;1.75;1.30;;;;;;;;;;5067256;28;20085;-72
2023/07/05 08:35:37;;;;;;;3.88;1.48;;;;;;;;;;5067669;28;20056;-73
2023/07/05 08:38:22;;;;;;;1.75;1.13;;;;;;;;;;5054215;28;20104;-72
2023/07/05 08:41:10;;;;;;;5.30;1.50;;;;;;;;;;5067537;28;20425;-72
2023/07/05 08:44:05;;;;;;;2.53;1.50;;;;;;;;;;5067383;28;20032;-72
2023/07/05 08:47:00;;;;;;;3.55;1.67;;;;;;;;;;5067758;28;20139;-75
2023/07/05 08:49:47;;;;;;;1.98;1.30;;;;;;;;;;5058801;28;20028;-69
2023/07/05 08:52:34;;;;;;;3.28;1.48;;;;;;;;;;5067234;28;20102;-69
2023/07/05 08:55:23;;;;;;;2.40;1.30;;;;;;;;;;5066928;28;20056;-70
2023/07/05 08:58:10;;;;;;;2.22;1.33;;;;;;;;;;5052840;28;20054;-69
2023/07/05 09:01:00;;;;;;;2.78;1.40;;;;;;;;;;5063979;28;20387;-71
2023/07/05 09:03:46;;;;;;;1.60;1.15;;;;;;;;;;5065421;28;20121;-79
2023/07/05 09:06:34;;;;;;;2.72;1.40;;;;;;;;;;5061966;28;20056;-68
2023/07/05 09:09:38;;;;;;;2.55;1.63;;;;;;;;;;5053609;28;20043;-68
2023/07/05 09:12:35;;;;;;;4.93;1.98;;;;;;;;;;5047115;28;20064;-70
2023/07/05 09:15:23;;;;;;;12.50;2.25;;;;;;;;;;5056790;28;20028;-67
2023/07/05 09:18:14;;;;;;;6.28;1.70;;;;;;;;;;5067607;28;20025;-67
2023/07/05 09:20:59;;;;;;;4.43;1.92;;;;;;;;;;5066926;28;20033;-68
2023/07/05 09:23:47;;;;;;;4.32;2.00;;;;;;;;;;5065970;28;20086;-70
2023/07/05 09:26:35;;;;;;;3.03;2.00;;;;;;;;;;5052373;28;20120;-69
2023/07/05 09:29:26;;;;;;;3.13;1.95;;;;;;;;;;5077479;28;20032;-68
2023/07/05 09:32:12;;;;;;;8.40;2.40;;;;;;;;;;5056378;28;20036;-70
2023/07/05 09:34:59;;;;;;;6.57;2.33;;;;;;;;;;5071855;28;20112;-69
2023/07/05 09:37:51;;;;;;;3.70;2.10;;;;;;;;;;5067610;28;20039;-69
2023/07/05 09:40:38;;;;;;;6.78;2.60;;;;;;;;;;5066091;28;20020;-69
2023/07/05 09:43:31;;;;;;;3.33;2.03;;;;;;;;;;5067170;28;20036;-76
2023/07/05 09:46:26;;;;;;;3.25;2.10;;;;;;;;;;5059534;28;20042;-76
2023/07/05 09:49:13;;;;;;;5.32;2.08;;;;;;;;;;5063434;28;20131;-78
2023/07/05 09:51:59;;;;;;;2.95;1.85;;;;;;;;;;5064091;28;20108;-75
2023/07/05 09:54:45;;;;;;;7.70;2.47;;;;;;;;;;5071109;28;20027;-75
2023/07/05 09:57:30;;;;;;;5.55;2.20;;;;;;;;;;5074778;28;20028;-74
2023/07/05 10:00:32;;;;;;;4.47;2.17;;;;;;;;;;5068774;28;20027;-68
2023/07/05 10:03:19;;;;;;;4.00;2.28;;;;;;;;;;5073372;28;20103;-75
2023/07/05 10:06:09;;;;;;;4.60;2.67;;;;;;;;;;5067818;28;20055;-73
2023/07/05 10:08:56;;;;;;;5.45;2.90;;;;;;;;;;5070220;28;20025;-75
2023/07/05 10:11:42;;;;;;;5.45;2.88;;;;;;;;;;5068550;28;20168;-74
2023/07/05 10:14:32;;;;;;;5.47;2.58;;;;;;;;;;5072803;28;20028;-75
2023/07/05 10:17:17;;;;;;;3.55;2.38;;;;;;;;;;5074640;28;20060;-70
2023/07/05 10:20:04;;;;;;;4.35;2.20;;;;;;;;;;5070124;28;20048;-72
2023/07/05 10:23:04;;;;;;;4.43;2.80;;;;;;;;;;5068837;28;20379;-69
2023/07/05 10:25:51;;;;;;;7.05;2.53;;;;;;;;;;5056930;28;20032;-68
2023/07/05 10:28:40;;;;;;;4.72;2.72;;;;;;;;;;5080800;28;20367;-69
2023/07/05 10:31:26;;;;;;;3.95;2.50;;;;;;;;;;5066820;28;20111;-70
2023/07/05 10:34:17;;;;;;;5.78;3.05;;;;;;;;;;5041228;28;20028;-69
2023/07/05 10:37:04;;;;;;;7.20;3.22;;;;;;;;;;5069186;28;20017;-71
2023/07/05 10:39:50;;;;;;;6.53;3.03;;;;;;;;;;5070042;28;20069;-70
2023/07/05 10:42:36;;;;;;;4.03;2.92;;;;;;;;;;5068945;28;20114;-72
2023/07/05 10:45:22;;;;;;;6.30;2.75;;;;;;;;;;5067524;28;20095;-72
2023/07/05 10:48:15;;;;;;;6.63;2.67;;;;;;;;;;5060107;28;20042;-71
2023/07/05 10:51:01;;;;;;;5.10;2.90;;;;;;;;;;5069730;28;20670;-72
2023/07/05 10:53:52;;;;;;;4.70;2.53;;;;;;;;;;5069203;28;20032;-69
2023/07/05 10:56:38;;;;;;;4.70;3.00;;;;;;;;;;5058066;28;20024;-70
2023/07/05 10:59:30;;;;;;;4.68;2.97;;;;;;;;;;5069996;28;20438;-69
2023/07/05 11:02:25;;;;;;;3.70;2.78;;;;;;;;;;5069033;28;20025;-69
2023/07/05 11:05:21;;;;;;;6.07;3.60;;;;;;;;;;5069120;28;20041;-70
2023/07/05 11:08:14;;;;;;;5.50;2.88;;;;;;;;;;5062936;28;20455;-69
2023/07/05 11:11:02;;;;;;;5.93;3.28;;;;;;;;;;5072765;28;20402;-68
2023/07/05 11:13:48;;;;;;;4.47;2.83;;;;;;;;;;5069488;28;20020;-69
2023/07/05 11:16:34;;;;;;;3.92;2.70;;;;;;;;;;5044469;28;20036;-69
2023/07/05 11:19:22;;;;;;;5.40;2.70;;;;;;;;;;5069759;28;20131;-68
2023/07/05 11:22:27;;;;;;;5.00;3.17;;;;;;;;;;5069179;28;20033;-71
2023/07/05 11:25:16;;;;;;;4.85;2.80;;;;;;;;;;5072433;28;20035;-70
2023/07/05 11:28:01;;;;;;;4.75;2.58;;;;;;;;;;5081890;28;20024;-70
2023/07/05 11:30:46;;;;;;;6.38;3.22;;;;;;;;;;5081714;28;20022;-78
2023/07/05 11:33:32;;;;;;;8.43;2.67;;;;;;;;;;5068334;28;20028;-76
2023/07/05 11:36:27;;;;;;;4.75;2.45;;;;;;;;;;5068574;28;20032;-75
2023/07/05 11:39:36;;;;;;;6.43;3.53;;;;;;;;;;5055882;28;20017;-75
2023/07/05 11:42:26;;;;;;;4.43;2.83;;;;;;;;;;5068048;28;20070;-74
2023/07/05 11:45:14;;;;;;;4.78;2.97;;;;;;;;;;5067951;28;20040;-77
2023/07/05 11:47:59;;;;;;;4.25;2.60;;;;;;;;;;5070617;28;20028;-75
2023/07/05 11:50:45;;;;;;;5.43;2.97;;;;;;;;;;5067681;28;20023;-79
2023/07/05 11:53:32;;;;;;;4.63;2.70;;;;;;;;;;5068534;28;20387;-70
2023/07/05 11:56:18;;;;;;;6.22;2.80;;;;;;;;;;5075724;28;20024;-69
2023/07/05 11:59:06;;;;;;;3.95;2.70;;;;;;;;;;5049936;28;20020;-69
2023/07/05 12:01:52;;;;;;;5.00;2.97;;;;;;;;;;5067742;28;20310;-70
2023/07/05 12:04:37;;;;;;;29.13;15.18;;;;;;;;;;5067560;28;20035;-70
2023/07/05 12:07:24;;;;;;;6.68;4.03;;;;;;;;;;5065955;28;20127;-68
2023/07/05 12:10:15;;;;;;;5.40;2.78;;;;;;;;;;5071876;28;20031;-69
2023/07/05 12:13:02;;;;;;;4.72;2.70;;;;;;;;;;5067555;28;20814;-74
2023/07/05 12:15:48;;;;;;;3.67;2.22;;;;;;;;;;5067804;28;20028;-77
2023/07/05 12:18:33;;;;;;;5.13;2.97;;;;;;;;;;5066649;28;20455;-75
2023/07/05 12:21:18;;;;;;;4.43;2.22;;;;;;;;;;5079440;28;20028;-75
2023/07/05 12:24:04;;;;;;;6.35;3.20;;;;;;;;;;5067402;28;20032;-75
2023/07/05 12:26:50;;;;;;;5.30;2.95;;;;;;;;;;5070236;28;20388;-70
2023/07/05 12:29:35;;;;;;;3.75;2.42;;;;;;;;;;5076618;28;20031;-79
2023/07/05 12:32:23;;;;;;;3.88;2.60;;;;;;;;;;5067861;28;20028;-79
2023/07/05 12:35:17;;;;;;;4.57;2.33;;;;;;;;;;5067171;28;20533;-79
2023/07/05 12:38:14;;;;;;;5.60;2.38;;;;;;;;;;5068082;28;20115;-80
2023/07/05 12:41:00;;;;;;;5.22;2.30;;;;;;;;;;5066551;28;20132;-79
2023/07/05 12:43:46;;;;;;;3.30;2.65;;;;;;;;;;5050539;28;20118;-79
2023/07/05 12:46:33;;;;;;;5.03;2.42;;;;;;;;;;5067496;28;20411;-77
2023/07/05 12:49:19;;;;;;;4.13;2.30;;;;;;;;;;5053759;28;20029;-73
2023/07/05 12:52:15;;;;;;;4.22;2.45;;;;;;;;;;5067567;28;20376;-72
2023/07/05 12:55:00;;;;;;;5.43;2.45;;;;;;;;;;5051778;28;20016;-70
2023/07/05 12:57:47;;;;;;;4.78;2.38;;;;;;;;;;5072241;28;20108;-74
2023/07/05 13:00:32;;;;;;;4.93;2.80;;;;;;;;;;5067353;28;20032;-72
2023/07/05 13:03:18;;;;;;;4.10;2.65;;;;;;;;;;5061727;28;20025;-69
2023/07/05 13:06:04;;;;;;;3.08;2.10;;;;;;;;;;5064923;28;20165;-72
2023/07/05 13:08:50;;;;;;;3.60;2.45;;;;;;;;;;5060715;28;20504;-71
2023/07/05 13:11:36;;;;;;;4.60;2.00;;;;;;;;;;5065087;28;20029;-71
2023/07/05 13:14:24;;;;;;;3.58;2.13;;;;;;;;;;5067488;28;20065;-71
2023/07/05 13:17:23;;;;;;;2.45;1.80;;;;;;;;;;5068549;28;20123;-71
2023/07/05 13:20:13;;;;;;;3.50;2.35;;;;;;;;;;5071376;28;20112;-71
2023/07/05 13:22:59;;;;;;;4.35;2.10;;;;;;;;;;5070875;28;20036;-77
2023/07/05 13:25:46;;;;;;;4.40;1.90;;;;;;;;;;5071125;28;20043;-72
2023/07/05 13:28:31;;;;;;;6.85;2.38;;;;;;;;;;5071017;28;20579;-71
2023/07/05 13:31:21;;;;;;;2.95;2.00;;;;;;;;;;5057958;28;20032;-73
2023/07/05 13:34:07;;;;;;;2.72;1.73;;;;;;;;;;5057607;28;20635;-72
2023/07/05 13:36:59;;;;;;;4.22;2.15;;;;;;;;;;5057212;28;20111;-71
2023/07/05 13:39:44;;;;;;;3.38;1.95;;;;;;;;;;5057133;28;20036;-72
2023/07/05 13:42:29;;;;;;;3.13;2.47;;;;;;;;;;5070290;28;20033;-68
2023/07/05 13:45:16;;;;;;;4.00;2.20;;;;;;;;;;5069694;28;20029;-69
2023/07/05 13:48:01;;;;;;;4.03;2.10;;;;;;;;;;5070725;28;20187;-68
2023/07/05 13:50:47;;;;;;;3.60;2.40;;;;;;;;;;5070764;28;20020;-68
2023/07/05 13:53:32;;;;;;;2.85;2.38;;;;;;;;;;5071149;28;20055;-71
2023/07/05 13:56:18;;;;;;;3.40;2.00;;;;;;;;;;5078840;28;20021;-69
2023/07/05 13:59:03;;;;;;;2.85;2.03;;;;;;;;;;5068378;28;20032;-71
2023/07/05 14:01:49;;;;;;;3.47;2.20;;;;;;;;;;5073744;28;20040;-75
2023/07/05 14:04:34;;;;;;;3.10;1.75;;;;;;;;;;5067829;28;20033;-74
2023/07/05 14:07:20;;;;;;;4.75;2.30;;;;;;;;;;5068080;28;20050;-74
2023/07/05 14:10:05;;;;;;;4.03;2.45;;;;;;;;;;5062444;28;20131;-74
2023/07/05 14:12:51;;;;;;;4.75;1.98;;;;;;;;;;5066863;28;20089;-74
2023/07/05 14:15:40;;;;;;;3.67;1.95;;;;;;;;;;5070405;28;20390;-74
2023/07/05 14:18:25;;;;;;;;;;;;;;;;;;5061408;28;20024;-74
2023/07/05 14:21:29;;;;;;;3.58;2.40;;;;;;;;;;5077872;28;19915;-69
2023/07/05 14:24:16;;;;;;;2.53;1.95;;;;;;;;;;5068225;28;20066;-70
2023/07/05 14:27:01;;;;;;;7.57;2.72;;;;;;;;;;5072408;28;20026;-68
2023/07/05 14:29:47;;;;;;;4.43;2.10;;;;;;;;;;5069158;28;20032;-69
2023/07/05 14:32:32;;;;;;;6.35;2.55;;;;;;;;;;5069324;28;20134;-68
2023/07/05 14:35:18;;;;;;;5.82;2.20;;;;;;;;;;5069636;28;20034;-74
2023/07/05 14:38:04;;;;;;;4.63;2.33;;;;;;;;;;5069930;28;20085;-72
2023/07/05 14:40:49;;;;;;;6.43;2.35;;;;;;;;;;5070035;28;20081;-71
2023/07/05 14:43:34;;;;;;;5.10;2.10;;;;;;;;;;5069607;28;20072;-71
2023/07/05 14:46:20;;;;;;;4.13;1.83;;;;;;;;;;5069980;28;20031;-70
2023/07/05 14:49:05;;;;;;;5.13;1.77;;;;;;;;;;5069805;28;20028;-72
2023/07/05 14:51:52;;;;;;;3.30;2.05;;;;;;;;;;5056305;28;20072;-73
2023/07/05 14:54:37;;;;;;;5.68;2.53;;;;;;;;;;5073558;28;20099;-73
2023/07/05 14:57:22;;;;;;;4.00;2.00;;;;;;;;;;5073472;28;20016;-68
2023/07/05 15:00:08;;;;;;;5.95;2.03;;;;;;;;;;5080091;28;20032;-69
2023/07/05 15:03:02;;;;;;;5.47;2.10;;;;;;;;;;5068507;28;20028;-70
2023/07/05 15:05:47;;;;;;;3.45;2.10;;;;;;;;;;5067963;28;20060;-69
2023/07/05 15:08:33;;;;;;;2.20;1.63;;;;;;;;;;5068764;28;20605;-70
2023/07/05 15:11:18;;;;;;;3.25;1.63;;;;;;;;;;5065182;28;20111;-74
2023/07/05 15:14:08;;;;;;;2.38;1.98;;;;;;;;;;5081659;28;20118;-78
2023/07/05 15:16:53;;;;;;;2.55;1.70;;;;;;;;;;5059470;28;20025;-71
2023/07/05 15:19:38;;;;;;;4.20;2.08;;;;;;;;;;5069401;28;20123;-69
2023/07/05 15:22:23;;;;;;;3.67;2.03;;;;;;;;;;5057259;28;20110;-70
2023/07/05 15:25:08;;;;;;;3.35;2.10;;;;;;;;;;5067489;28;20548;-70
2023/07/05 15:27:54;;;;;;;2.30;1.65;;;;;;;;;;5073046;28;20032;-71
2023/07/05 15:30:39;;;;;;;3.13;1.92;;;;;;;;;;5055602;28;20029;-79
2023/07/05 15:33:25;;;;;;;3.63;2.05;;;;;;;;;;5067916;28;20032;-76
2023/07/05 15:36:13;;;;;;;4.78;2.20;;;;;;;;;;5068105;28;20466;-76
2023/07/05 15:38:58;;;;;;;3.42;2.05;;;;;;;;;;5068316;28;20047;-77
2023/07/05 15:41:44;;;;;;;6.15;2.20;;;;;;;;;;5068591;28;20032;-76
2023/07/05 15:44:29;;;;;;;3.13;1.77;;;;;;;;;;5056077;28;20033;-74
2023/07/05 15:47:15;;;;;;;4.45;1.85;;;;;;;;;;5057106;28;20038;-76
2023/07/05 15:50:02;;;;;;;3.28;1.75;;;;;;;;;;5059737;28;20098;-78
2023/07/05 15:52:49;;;;;;;4.30;2.00;;;;;;;;;;5077060;28;20027;-71
2023/07/05 15:55:34;;;;;;;2.25;1.55;;;;;;;;;;5069040;28;20345;-71
2023/07/05 15:58:22;;;;;;;3.90;2.03;;;;;;;;;;5064326;28;20023;-69
2023/07/05 16:01:20;;;;;;;6.35;2.35;;;;;;;;;;5066589;28;20399;-71
2023/07/05 16:04:06;;;;;;;3.03;1.73;;;;;;;;;;5067199;28;20040;-70
2023/07/05 16:06:51;;;;;;;3.63;1.88;;;;;;;;;;5057834;28;20041;-68
2023/07/05 16:09:36;;;;;;;4.47;2.03;;;;;;;;;;5066664;28;20530;-80
2023/07/05 16:12:21;;;;;;;3.40;1.95;;;;;;;;;;5067902;28;20021;-78
2023/07/05 16:15:07;;;;;;;4.57;1.73;;;;;;;;;;5068294;28;20020;-79
2023/07/05 16:17:52;;;;;;;4.63;2.05;;;;;;;;;;5069695;28;20529;-79
2023/07/05 16:20:38;;;;;;;5.85;1.67;;;;;;;;;;5056360;28;20039;-79
2023/07/05 16:23:24;;;;;;;3.47;2.35;;;;;;;;;;5064403;28;20157;-80
2023/07/05 16:26:09;;;;;;;5.30;2.05;;;;;;;;;;5059925;28;20024;-70
2023/07/05 16:28:55;;;;;;;6.30;2.17;;;;;;;;;;5078184;28;20063;-75
2023/07/05 16:31:40;;;;;;;4.03;1.80;;;;;;;;;;5053446;28;20467;-76
2023/07/05 16:34:25;;;;;;;3.75;1.95;;;;;;;;;;5077608;28;20024;-75
2023/07/05 16:37:10;;;;;;;2.90;2.05;;;;;;;;;;5069882;28;20020;-76
2023/07/05 16:39:58;;;;;;;4.43;2.00;;;;;;;;;;5067344;28;20414;-76